Terminal Aerodrome Forecast
Issued by NWS

Home | Current Version | Previous Version | Graphics & Text | Print | Product List | Glossary On
Versions: 1 2 3 4 5 6 7 8 9 10 11 12 13 14 15 16 17 18
000
FTUS41 KCLE 231100
TAFFDY
TAF
KFDY 231138Z 2312/2412 24006KT 5SM -RA BR OVC100
     FM231330 31008KT P6SM OVC015
     FM231600 35010KT P6SM OVC025
     FM231900 01010KT P6SM BKN035
     FM232300 03008KT P6SM SCT050
     FM240400 03006KT P6SM SKC=

USA.gov is the U.S. government's official web portal to all federal, state and local government web resources and services.